マナーマ の空港の天気 - METARとTAF

バーレーン国際空港 ( OBBI / BAH ) - バーレーン マナーマ
飛行場実況気象(Metar)
観測時間08/04 22:30 AST (08/04 19:30 UTC)
風向・風速西 2m/s
視程10km以上
天気現象
なし
気温37℃
湿度42%
気圧993hPa
METAROBBI 041930Z 28004KT CAVOK 37/22 Q0993 NOSIG
過去の天気等 Google飛行場航空写真 Wunderground天気予報

過去48時間のMETAR

飛行場予報(TAF)
発表時間: 8/04 20:00 AST (8/04 17:00 UTC)
予報対象時間: 4日21時 AST ~ 6日3時 AST
風向・風速北西 5m/s
視程10km以上
なし
TAF OBBI 041700Z 0418/0600 32010KT CAVOK